Terminal Aerodrome Forecast
Issued by NWS Central Illinois

Home | Current Version | Previous Version | Text Only | Print | Product List | Glossary On
Versions: 1 2 3 4 5 6 7 8 9 10 11 12 13 14 15 16
386
FTUS43 KILX 231120
TAFPIA
TAF
KPIA 231120Z 2312/2412 VRB03KT P6SM FEW120
     FM231500 15006KT P6SM SCT050
     FM240000 14004KT P6SM SKC=

USA.gov is the U.S. government's official web portal to all federal, state and local government web resources and services.